createdAt,value
2023-01-11T00:00:21.691Z,88683.00
2023-01-11T00:01:21.591Z,88681.00
2023-01-11T00:02:21.577Z,88681.00
2023-01-11T00:03:21.412Z,88681.00
2023-01-11T00:04:21.401Z,88679.00
2023-01-11T00:05:21.223Z,88681.00
2023-01-11T00:06:21.164Z,88679.00
2023-01-11T00:07:21.051Z,88679.00
2023-01-11T00:08:20.953Z,88679.00
2023-01-11T00:09:20.890Z,88681.00
2023-01-11T00:10:20.826Z,88679.00
2023-01-11T00:11:20.698Z,88681.00
2023-01-11T00:12:20.628Z,88679.00
2023-01-11T00:13:20.532Z,88677.00
2023-01-11T00:14:20.434Z,88679.00
2023-01-11T00:15:20.341Z,88679.00
2023-01-11T00:16:20.335Z,88679.00
2023-01-11T00:17:20.183Z,88679.00
2023-01-11T00:18:20.080Z,88677.00
2023-01-11T00:19:19.996Z,88673.00
2023-01-11T00:20:19.915Z,88673.00
2023-01-11T00:21:19.827Z,88671.00
2023-01-11T00:22:19.728Z,88671.00
2023-01-11T00:23:19.637Z,88671.00
2023-01-11T00:24:19.538Z,88669.00
2023-01-11T00:25:19.445Z,88669.00
2023-01-11T00:26:19.355Z,88668.00
2023-01-11T00:27:19.270Z,88671.00
2023-01-11T00:28:19.221Z,88669.00
2023-01-11T00:29:19.074Z,88673.00
2023-01-11T00:30:19.006Z,88675.00
2023-01-11T00:31:18.920Z,88675.00
2023-01-11T00:32:18.805Z,88675.00
2023-01-11T00:33:18.719Z,88675.00
2023-01-11T00:34:18.623Z,88673.00
2023-01-11T00:35:18.547Z,88671.00
2023-01-11T00:36:18.452Z,88671.00
2023-01-11T00:37:18.361Z,88669.00
2023-01-11T00:38:18.266Z,88669.00
2023-01-11T00:39:18.165Z,88668.00
2023-01-11T00:40:18.128Z,88666.00
2023-01-11T00:41:18.005Z,88666.00
2023-01-11T00:42:17.921Z,88668.00
2023-01-11T00:43:17.818Z,88669.00
2023-01-11T00:44:17.738Z,88666.00
2023-01-11T00:45:17.654Z,88664.00
2023-01-11T00:46:17.611Z,88662.00
2023-01-11T00:47:17.479Z,88658.00
2023-01-11T00:48:17.404Z,88656.00
2023-01-11T00:49:17.283Z,88654.00
2023-01-11T00:50:17.221Z,88652.00
2023-01-11T00:51:17.145Z,88650.00
2023-01-11T00:52:17.055Z,88648.00
2023-01-11T00:53:16.931Z,88646.00
2023-01-11T00:54:16.866Z,88646.00
2023-01-11T00:55:16.766Z,88648.00
2023-01-11T00:56:16.679Z,88646.00
2023-01-11T00:57:16.595Z,88648.00
2023-01-11T00:58:16.512Z,88646.00
2023-01-11T00:59:16.455Z,88648.00
2023-01-11T01:00:16.355Z,88646.00
2023-01-11T01:01:16.307Z,88646.00
2023-01-11T01:02:16.186Z,88646.00
2023-01-11T01:03:16.096Z,88646.00
2023-01-11T01:04:16.044Z,88644.00
2023-01-11T01:05:15.944Z,88644.00
2023-01-11T01:06:15.843Z,88646.00
2023-01-11T01:07:15.764Z,88646.00
2023-01-11T01:08:15.701Z,88650.00
2023-01-11T01:09:15.591Z,88650.00
2023-01-11T01:10:15.524Z,88650.00
2023-01-11T01:11:15.434Z,88648.00
2023-01-11T01:12:15.360Z,88646.00
2023-01-11T01:13:15.279Z,88646.00
2023-01-11T01:14:15.194Z,88642.00
2023-01-11T02:49:06.951Z,88607.00
2023-01-11T02:50:06.867Z,88609.00
2023-01-11T02:51:06.769Z,88607.00
2023-01-11T02:52:06.689Z,88609.00
2023-01-11T02:53:06.608Z,88611.00
2023-01-11T02:54:06.541Z,88615.00
2023-01-11T02:55:06.405Z,88615.00
2023-01-11T02:56:06.322Z,88615.00
2023-01-11T02:57:06.240Z,88615.00
2023-01-11T02:58:06.157Z,88611.00
2023-01-11T02:59:06.076Z,88611.00
2023-01-11T03:00:05.982Z,88611.00
2023-01-11T03:01:05.920Z,88611.00
2023-01-11T03:02:05.929Z,88613.00
2023-01-11T03:03:05.782Z,88611.00
2023-01-11T03:04:05.647Z,88609.00
2023-01-11T03:05:05.554Z,88603.00
2023-01-11T03:06:05.461Z,88607.00
2023-01-11T03:07:05.386Z,88603.00
2023-01-11T03:08:05.300Z,88605.00
2023-01-11T03:09:05.196Z,88601.00
2023-01-11T03:51:01.480Z,88577.00
2023-01-11T03:52:01.392Z,88579.00
2023-01-11T03:53:01.319Z,88579.00
2023-01-11T03:54:01.227Z,88579.00
2023-01-11T03:55:01.161Z,88579.00
2023-01-11T03:56:01.048Z,88577.00
2023-01-11T03:57:00.966Z,88581.00
2023-01-11T03:58:00.875Z,88581.00
2023-01-11T03:59:00.795Z,88579.00
2023-01-11T04:00:00.717Z,88583.00
2023-01-11T04:01:00.677Z,88579.00
2023-01-11T04:02:00.542Z,88579.00
2023-01-11T04:03:00.459Z,88579.00
2023-01-11T04:04:00.396Z,88577.00
2023-01-11T04:05:00.289Z,88579.00
2023-01-11T04:06:00.180Z,88579.00
2023-01-11T04:07:00.160Z,88579.00
2023-01-11T04:08:00.026Z,88577.00
2023-01-11T04:08:59.912Z,88577.00
2023-01-11T04:09:59.817Z,88579.00
2023-01-11T04:10:59.744Z,88581.00
2023-01-11T04:11:59.648Z,88579.00
2023-01-11T04:12:59.556Z,88581.00
2023-01-11T04:13:59.459Z,88579.00
2023-01-11T04:14:59.368Z,88577.00
2023-01-11T04:15:59.347Z,88577.00
2023-01-11T04:16:59.200Z,88575.00
2023-01-11T04:17:59.121Z,88575.00
2023-01-11T04:18:59.014Z,88575.00
2023-01-11T04:19:58.938Z,88575.00
2023-01-11T04:20:58.848Z,88573.00
2023-01-11T04:21:58.744Z,88573.00
2023-01-11T04:22:58.652Z,88577.00
2023-01-11T04:23:58.558Z,88579.00
2023-01-11T04:24:58.469Z,88579.00
2023-01-11T04:25:58.405Z,88581.00
2023-01-11T04:26:58.293Z,88583.00
2023-01-11T04:27:58.208Z,88581.00
2023-01-11T04:28:58.104Z,88581.00
2023-01-11T04:29:58.029Z,88579.00
2023-01-11T04:30:57.942Z,88577.00
2023-01-11T04:31:57.834Z,88571.00
2023-01-11T04:32:57.745Z,88571.00
2023-01-11T04:33:57.677Z,88569.00
2023-01-11T04:34:57.576Z,88567.00
2023-01-11T04:35:57.495Z,88563.00
2023-01-11T04:36:57.395Z,88565.00
2023-01-11T04:37:57.299Z,88562.00
2023-01-11T04:38:57.212Z,88563.00
2023-01-11T04:39:57.133Z,88563.00
2023-01-11T04:40:57.069Z,88563.00
2023-01-11T04:41:56.961Z,88562.00
2023-01-11T04:42:56.879Z,88560.00
2023-01-11T04:43:56.796Z,88560.00
2023-01-11T04:44:56.693Z,88558.00
2023-01-11T04:45:56.694Z,88560.00
2023-01-11T04:46:56.530Z,88556.00
2023-01-11T04:47:56.433Z,88558.00
2023-01-11T04:48:56.347Z,88560.00
2023-01-11T04:49:56.256Z,88562.00
2023-01-11T04:50:56.176Z,88563.00
2023-01-11T04:51:56.089Z,88567.00
2023-01-11T04:52:55.992Z,88567.00
2023-01-11T04:53:55.927Z,88569.00
2023-01-11T04:54:55.836Z,88569.00
2023-01-11T04:55:55.728Z,88569.00
2023-01-11T04:56:55.640Z,88569.00
2023-01-11T04:57:55.555Z,88567.00
2023-01-11T04:58:55.458Z,88567.00
2023-01-11T04:59:55.389Z,88569.00
2023-01-11T05:00:55.331Z,88569.00
2023-01-11T05:01:55.197Z,88571.00
2023-01-11T06:49:46.165Z,88522.00
2023-01-11T06:50:46.080Z,88524.00
2023-01-11T06:51:45.955Z,88526.00
2023-01-11T06:52:45.863Z,88524.00
2023-01-11T06:53:45.784Z,88520.00
2023-01-11T06:54:45.703Z,88524.00
2023-01-11T06:55:45.606Z,88526.00
2023-01-11T06:56:45.554Z,88528.00
2023-01-11T06:57:45.491Z,88526.00
2023-01-11T06:58:47.051Z,88530.00
2023-01-11T06:59:45.279Z,88528.00
2023-01-11T07:00:45.200Z,88532.00
2023-01-11T08:16:39.002Z,88524.00
2023-01-11T08:17:38.958Z,88520.00
2023-01-11T08:18:39.657Z,88520.00
2023-01-11T08:19:38.729Z,88518.00
2023-01-11T08:20:38.745Z,88516.00
2023-01-11T08:21:38.491Z,88516.00
2023-01-11T08:22:38.423Z,88514.00
2023-01-11T08:23:38.330Z,88516.00
2023-01-11T08:24:38.236Z,88518.00
2023-01-11T08:25:38.179Z,88516.00
2023-01-11T08:26:38.094Z,88514.00
2023-01-11T08:27:40.623Z,88512.00
2023-01-11T08:28:37.920Z,88512.00
2023-01-11T08:29:37.707Z,88510.00
2023-01-11T08:30:37.603Z,88507.00
2023-01-11T08:31:37.517Z,88507.00
2023-01-11T08:32:37.416Z,88507.00
2023-01-11T08:33:37.311Z,88508.00
2023-01-11T08:34:37.214Z,88508.00
2023-01-11T08:35:37.129Z,88507.00
2023-01-11T08:36:37.017Z,88505.00
2023-01-11T08:37:37.012Z,88507.00
2023-01-11T08:38:36.843Z,88508.00
2023-01-11T08:39:36.782Z,88508.00
2023-01-11T08:40:36.648Z,88510.00
2023-01-11T08:41:36.555Z,88512.00
2023-01-11T08:42:36.469Z,88508.00
2023-01-11T08:43:36.375Z,88508.00
2023-01-11T08:44:36.279Z,88510.00
2023-01-11T08:45:36.209Z,88510.00
2023-01-11T08:46:36.169Z,88510.00
2023-01-11T08:47:36.018Z,88510.00
2023-01-11T08:48:35.936Z,88508.00
2023-01-11T08:49:35.831Z,88510.00
2023-01-11T08:50:35.769Z,88510.00
2023-01-11T08:51:35.633Z,88510.00
2023-01-11T08:52:35.579Z,88512.00
2023-01-11T08:53:35.468Z,88510.00
2023-01-11T08:54:35.367Z,88512.00
2023-01-11T08:55:35.258Z,88510.00
2023-01-11T08:56:35.197Z,88514.00
2023-01-11T09:00:36.960Z,88514.00
2023-01-11T09:31:36.056Z,88499.00
2023-01-11T10:22:27.949Z,88441.00
2023-01-11T10:23:27.792Z,88441.00
2023-01-11T10:24:27.737Z,88439.00
2023-01-11T10:25:27.581Z,88439.00
2023-01-11T10:26:27.477Z,88435.00
2023-01-11T10:27:27.381Z,88437.00
2023-01-11T10:28:27.339Z,88433.00
2023-01-11T10:29:27.264Z,88433.00
2023-01-11T10:30:27.099Z,88427.00
2023-01-11T10:31:27.029Z,88429.00
2023-01-11T10:32:26.917Z,88427.00
2023-01-11T10:33:26.805Z,88427.00
2023-01-11T10:34:26.731Z,88427.00
2023-01-11T10:35:26.602Z,88431.00
2023-01-11T10:36:28.722Z,88429.00
2023-01-11T10:37:26.419Z,88425.00
2023-01-11T10:38:26.430Z,88423.00
2023-01-11T10:39:26.223Z,88419.00
2023-01-11T10:40:26.128Z,88417.00
2023-01-11T10:41:26.225Z,88417.00
2023-01-11T10:42:25.937Z,88417.00
2023-01-11T10:43:25.866Z,88417.00
2023-01-11T10:44:25.770Z,88415.00
2023-01-11T10:45:25.692Z,88413.00
2023-01-11T10:46:25.525Z,88411.00
2023-01-11T10:47:25.428Z,88409.00
2023-01-11T10:48:25.332Z,88409.00
2023-01-11T10:49:25.291Z,88405.00
2023-01-11T10:58:24.412Z,88409.00
2023-01-11T10:59:24.292Z,88407.00
2023-01-11T11:00:24.218Z,88405.00
2023-01-11T11:01:24.087Z,88399.00
2023-01-11T11:02:25.550Z,88403.00
2023-01-11T11:03:23.921Z,88401.00
2023-01-11T11:04:23.867Z,88403.00
2023-01-11T11:05:23.761Z,88403.00
2023-01-11T11:06:23.626Z,88403.00
2023-01-11T11:07:23.527Z,88403.00
2023-01-11T11:08:23.445Z,88401.00
2023-01-11T11:09:23.391Z,88397.00
2023-01-11T11:10:23.249Z,88399.00
2023-01-11T11:11:23.148Z,88399.00
2023-01-11T11:12:23.057Z,88395.00
2023-01-11T11:13:22.956Z,88395.00
2023-01-11T11:14:22.861Z,88395.00
2023-01-11T11:15:22.775Z,88395.00
2023-01-11T11:16:22.788Z,88399.00
2023-01-11T11:17:22.586Z,88401.00
2023-01-11T11:18:22.539Z,88403.00
2023-01-11T11:19:22.416Z,88399.00
2023-01-11T11:20:22.318Z,88401.00
2023-01-11T11:21:22.227Z,88397.00
2023-01-11T11:22:22.171Z,88393.00
2023-01-11T11:23:22.064Z,88395.00
2023-01-11T11:24:21.968Z,88395.00
2023-01-11T11:25:21.871Z,88395.00
2023-01-11T11:26:21.778Z,88399.00
2023-01-11T11:27:21.711Z,88399.00
2023-01-11T11:28:21.617Z,88397.00
2023-01-11T11:29:21.518Z,88397.00
2023-01-11T11:30:21.431Z,88399.00
2023-01-11T11:31:21.353Z,88397.00
2023-01-11T11:32:21.249Z,88399.00
2023-01-11T11:33:21.158Z,88395.00
2023-01-11T11:34:21.086Z,88395.00
2023-01-11T11:35:20.972Z,88392.00
2023-01-11T11:36:20.922Z,88392.00
2023-01-11T11:37:20.829Z,88384.00
2023-01-11T11:38:20.769Z,88382.00
2023-01-11T11:39:20.628Z,88384.00
2023-01-11T11:40:20.564Z,88388.00
2023-01-11T11:41:20.471Z,88388.00
2023-01-11T11:42:20.382Z,88384.00
2023-01-11T11:43:20.288Z,88386.00
2023-01-11T11:44:20.187Z,88384.00
2023-01-11T11:45:20.107Z,88382.00
2023-01-11T11:46:20.487Z,88382.00
2023-01-11T11:47:19.900Z,88378.00
2023-01-11T11:48:19.810Z,88378.00
2023-01-11T11:49:19.717Z,88380.00
2023-01-11T11:50:32.067Z,88376.00
2023-01-11T11:51:20.529Z,88376.00
2023-01-11T11:52:19.439Z,88374.00
2023-01-11T11:53:19.357Z,88372.00
2023-01-11T11:54:19.260Z,88370.00
2023-01-11T11:55:19.205Z,88366.00
2023-01-11T11:56:19.103Z,88364.00
2023-01-11T11:57:19.000Z,88364.00
2023-01-11T11:58:18.963Z,88360.00
2023-01-11T11:59:18.829Z,88360.00
2023-01-11T12:00:18.753Z,88358.00
2023-01-11T12:01:18.625Z,88356.00
2023-01-11T12:02:18.585Z,88352.00
2023-01-11T12:03:18.458Z,88352.00
2023-01-11T12:04:18.359Z,88352.00
2023-01-11T12:05:18.296Z,88348.00
2023-01-11T12:06:18.169Z,88346.00
2023-01-11T12:07:18.065Z,88344.00
2023-01-11T12:08:17.981Z,88340.00
2023-01-11T12:09:17.890Z,88338.00
2023-01-11T12:10:17.799Z,88340.00
2023-01-11T12:11:17.706Z,88338.00
2023-01-11T12:12:17.636Z,88338.00
2023-01-11T12:13:17.525Z,88337.00
2023-01-11T12:14:17.492Z,88335.00
2023-01-11T12:15:17.363Z,88329.00
2023-01-11T12:16:17.377Z,88327.00
2023-01-11T12:17:17.155Z,88333.00
2023-01-11T12:18:17.084Z,88325.00
2023-01-11T12:19:16.964Z,88325.00
2023-01-11T12:20:16.931Z,88323.00
2023-01-11T12:21:16.810Z,88327.00
2023-01-11T12:22:16.704Z,88323.00
2023-01-11T12:23:16.614Z,88323.00
2023-01-11T12:24:16.521Z,88327.00
2023-01-11T12:25:16.422Z,88325.00
2023-01-11T12:26:16.360Z,88323.00
2023-01-11T12:27:16.304Z,88325.00
2023-01-11T12:28:16.167Z,88327.00
2023-01-11T12:29:16.077Z,88323.00
2023-01-11T12:30:17.756Z,88323.00
2023-01-11T12:31:16.047Z,88319.00
2023-01-11T12:32:15.825Z,88317.00
2023-01-11T12:33:15.715Z,88317.00
2023-01-11T12:34:15.649Z,88323.00
2023-01-11T12:35:15.552Z,88309.00
2023-01-11T12:36:15.454Z,88305.00
2023-01-11T12:37:15.371Z,88309.00
2023-01-11T12:38:15.296Z,88309.00
2023-01-11T12:39:15.173Z,88307.00
2023-01-11T12:40:15.146Z,88303.00
2023-01-11T12:41:14.998Z,88301.00
2023-01-11T12:42:14.913Z,88297.00
2023-01-11T12:43:14.865Z,88297.00
2023-01-11T12:44:14.743Z,88301.00
2023-01-11T12:45:14.643Z,88301.00
2023-01-11T12:46:14.648Z,88301.00
2023-01-11T12:47:16.173Z,88295.00
2023-01-11T12:48:14.378Z,88291.00
2023-01-11T12:49:14.289Z,88289.00
2023-01-11T12:50:14.363Z,88291.00
2023-01-11T12:51:14.122Z,88289.00
2023-01-11T12:52:14.053Z,88284.00
2023-01-11T12:53:13.944Z,88289.00
2023-01-11T12:54:13.881Z,88284.00
2023-01-11T12:55:13.776Z,88289.00
2023-01-11T12:56:13.664Z,88282.00
2023-01-11T12:57:13.579Z,88278.00
2023-01-11T12:58:14.442Z,88274.00
2023-01-11T12:59:13.396Z,88274.00
2023-01-11T13:00:13.357Z,88266.00
2023-01-11T13:01:13.283Z,88266.00
2023-01-11T13:02:13.179Z,88262.00
2023-01-11T13:03:13.027Z,88268.00
2023-01-11T13:04:12.949Z,88268.00
2023-01-11T13:05:12.836Z,88268.00
2023-01-11T13:06:12.735Z,88266.00
2023-01-11T13:07:12.691Z,88260.00
2023-01-11T13:08:12.564Z,88264.00
2023-01-11T13:09:12.467Z,88270.00
2023-01-11T13:10:12.396Z,88260.00
2023-01-11T13:11:12.350Z,88260.00
2023-01-11T13:12:12.225Z,88264.00
2023-01-11T13:13:12.112Z,88260.00
2023-01-11T13:14:12.050Z,88252.00
2023-01-11T13:15:11.940Z,88252.00
2023-01-11T13:16:11.827Z,88252.00
2023-01-11T13:17:11.796Z,88254.00
2023-01-11T13:18:11.665Z,88256.00
2023-01-11T13:19:11.552Z,88248.00
2023-01-11T13:20:11.444Z,88248.00
2023-01-11T13:21:11.338Z,88252.00
2023-01-11T13:22:11.257Z,88252.00
2023-01-11T13:23:11.167Z,88250.00
2023-01-11T13:24:11.064Z,88246.00
2023-01-11T13:25:10.995Z,88246.00
2023-01-11T13:26:10.890Z,88242.00
2023-01-11T13:27:10.889Z,88242.00
2023-01-11T13:28:13.613Z,88252.00
2023-01-11T13:29:11.613Z,88252.00
2023-01-11T13:30:10.561Z,88248.00
2023-01-11T13:31:10.480Z,88252.00
2023-01-11T13:32:10.340Z,88256.00
2023-01-11T13:33:10.318Z,88256.00
2023-01-11T13:34:10.197Z,88254.00
2023-01-11T13:35:10.109Z,88252.00
2023-01-11T13:36:22.223Z,88252.00
2023-01-11T13:37:10.895Z,88248.00
2023-01-11T13:38:09.790Z,88246.00
2023-01-11T13:39:09.708Z,88248.00
2023-01-11T13:40:09.615Z,88248.00
2023-01-11T13:41:09.534Z,88246.00
2023-01-11T13:42:09.447Z,88242.00
2023-01-11T13:43:09.371Z,88238.00
2023-01-11T13:44:09.267Z,88240.00
2023-01-11T13:45:09.181Z,88244.00
2023-01-11T13:46:09.121Z,88240.00
2023-01-11T13:47:08.983Z,88244.00
2023-01-11T13:48:08.894Z,88242.00
2023-01-11T13:49:08.796Z,88244.00
2023-01-11T13:50:08.729Z,88246.00
2023-01-11T13:51:08.609Z,88250.00
2023-01-11T13:52:08.513Z,88248.00
2023-01-11T13:53:08.431Z,88246.00
2023-01-11T13:54:08.327Z,88242.00
2023-01-11T13:55:11.260Z,88242.00
2023-01-11T13:56:09.152Z,88244.00
2023-01-11T13:57:08.048Z,88244.00
2023-01-11T13:58:07.960Z,88240.00
2023-01-11T13:59:07.862Z,88242.00
2023-01-11T14:00:07.785Z,88244.00
2023-01-11T14:01:07.788Z,88248.00
2023-01-11T14:02:07.584Z,88254.00
2023-01-11T14:03:07.536Z,88256.00
2023-01-11T14:04:07.451Z,88258.00
2023-01-11T14:05:07.320Z,88256.00
2023-01-11T14:06:07.252Z,88254.00
2023-01-11T14:07:07.165Z,88252.00
2023-01-11T14:08:07.074Z,88256.00
2023-01-11T14:09:06.986Z,88258.00
2023-01-11T14:10:06.890Z,88262.00
2023-01-11T14:11:06.786Z,88264.00
2023-01-11T14:12:07.257Z,88266.00
2023-01-11T14:13:06.659Z,88270.00
2023-01-11T14:14:06.527Z,88274.00
2023-01-11T14:15:06.435Z,88278.00
2023-01-11T14:16:06.380Z,88278.00
2023-01-11T14:17:06.252Z,88276.00
2023-01-11T14:18:06.181Z,88276.00
2023-01-11T14:19:06.092Z,88276.00
2023-01-11T14:20:05.987Z,88270.00
2023-01-11T14:21:05.900Z,88272.00
2023-01-11T14:22:05.806Z,88274.00
2023-01-11T14:23:05.744Z,88276.00
2023-01-11T14:24:05.617Z,88278.00
2023-01-11T14:25:05.519Z,88280.00
2023-01-11T14:26:05.445Z,88282.00
2023-01-11T14:27:05.400Z,88282.00
2023-01-11T14:28:05.246Z,88282.00
2023-01-11T14:29:05.166Z,88286.00
2023-01-11T14:30:05.075Z,88287.00
2023-01-11T14:31:05.039Z,88287.00
2023-01-11T14:32:04.874Z,88287.00
2023-01-11T14:33:04.779Z,88287.00
2023-01-11T14:34:04.705Z,88286.00
2023-01-11T14:35:04.607Z,88284.00
2023-01-11T14:36:04.507Z,88282.00
2023-01-11T14:37:04.429Z,88278.00
2023-01-11T14:38:05.275Z,88274.00
2023-01-11T14:39:04.229Z,88272.00
2023-01-11T14:40:04.123Z,88270.00
2023-01-11T14:41:04.075Z,88272.00
2023-01-11T14:42:03.969Z,88272.00
2023-01-11T14:43:03.873Z,88274.00
2023-01-11T14:44:03.778Z,88274.00
2023-01-11T14:45:03.715Z,88276.00
2023-01-11T14:46:03.654Z,88272.00
2023-01-11T14:47:03.503Z,88270.00
2023-01-11T14:48:03.396Z,88270.00
2023-01-11T14:49:03.309Z,88266.00
2023-01-11T14:50:03.238Z,88262.00
2023-01-11T14:51:03.166Z,88258.00
2023-01-11T14:52:03.044Z,88254.00
2023-01-11T14:53:02.953Z,88254.00
2023-01-11T14:54:02.866Z,88256.00
2023-01-11T14:55:02.795Z,88258.00
2023-01-11T14:56:02.699Z,88264.00
2023-01-11T14:57:02.631Z,88266.00
2023-01-11T14:58:02.564Z,88268.00
2023-01-11T14:59:02.447Z,88270.00
2023-01-11T15:00:02.340Z,88270.00
2023-01-11T15:01:02.260Z,88270.00
2023-01-11T15:02:02.215Z,88272.00
2023-01-11T15:03:02.104Z,88272.00
2023-01-11T15:04:02.012Z,88272.00
2023-01-11T15:05:02.040Z,88270.00
2023-01-11T15:06:01.831Z,88270.00
2023-01-11T15:07:01.758Z,88266.00
2023-01-11T15:08:01.682Z,88266.00
2023-01-11T15:09:01.589Z,88266.00
2023-01-11T15:10:01.524Z,88268.00
2023-01-11T15:11:01.431Z,88268.00
2023-01-11T15:12:01.328Z,88270.00
2023-01-11T15:13:01.292Z,88270.00
2023-01-11T15:14:02.790Z,88270.00
2023-01-11T15:15:01.117Z,88266.00
2023-01-11T15:16:01.147Z,88266.00
2023-01-11T15:17:00.928Z,88264.00
2023-01-11T15:18:00.828Z,88262.00
2023-01-11T15:19:00.724Z,88262.00
2023-01-11T15:20:00.642Z,88256.00
2023-01-11T15:21:00.557Z,88256.00
2023-01-11T15:22:00.450Z,88254.00
2023-01-11T15:23:00.358Z,88252.00
2023-01-11T15:24:00.272Z,88256.00
2023-01-11T15:25:00.195Z,88258.00
2023-01-11T15:26:00.116Z,88260.00
2023-01-11T15:27:00.059Z,88258.00
2023-01-11T15:27:59.894Z,88254.00
2023-01-11T15:28:59.802Z,88252.00
2023-01-11T15:29:59.716Z,88254.00
2023-01-11T15:30:59.696Z,88252.00
2023-01-11T15:31:59.519Z,88252.00
2023-01-11T15:32:59.476Z,88258.00
2023-01-11T15:33:59.434Z,88262.00
2023-01-11T15:34:59.265Z,88266.00
2023-01-11T15:35:59.153Z,88268.00
2023-01-11T15:36:59.111Z,88266.00
2023-01-11T15:37:58.994Z,88270.00
2023-01-11T15:38:58.886Z,88272.00
2023-01-11T15:39:58.815Z,88276.00
2023-01-11T15:40:58.715Z,88276.00
2023-01-11T15:41:58.621Z,88278.00
2023-01-11T15:42:58.532Z,88278.00
2023-01-11T15:43:58.434Z,88278.00
2023-01-11T15:44:58.344Z,88280.00
2023-01-11T15:45:58.244Z,88282.00
2023-01-11T15:46:58.174Z,88282.00
2023-01-11T15:47:58.048Z,88282.00
2023-01-11T15:48:57.977Z,88282.00
2023-01-11T15:49:57.909Z,88280.00
2023-01-11T15:50:57.801Z,88278.00
2023-01-11T15:51:57.728Z,88274.00
2023-01-11T15:52:57.621Z,88276.00
2023-01-11T15:53:57.556Z,88276.00
2023-01-11T15:54:57.474Z,88276.00
2023-01-11T15:55:57.380Z,88280.00
2023-01-11T15:56:57.283Z,88282.00
2023-01-11T15:57:57.183Z,88282.00
2023-01-11T15:58:57.128Z,88282.00
2023-01-11T15:59:57.049Z,88284.00
2023-01-11T16:00:56.997Z,88284.00
2023-01-11T16:01:56.836Z,88287.00
2023-01-11T16:02:56.751Z,88287.00
2023-01-11T16:03:58.439Z,88291.00
2023-01-11T16:04:56.582Z,88293.00
2023-01-11T16:05:56.493Z,88293.00
2023-01-11T16:06:56.404Z,88293.00
2023-01-11T16:07:56.326Z,88291.00
2023-01-11T16:08:56.235Z,88293.00
2023-01-11T16:09:56.136Z,88293.00
2023-01-11T16:10:56.037Z,88293.00
2023-01-11T16:11:55.972Z,88295.00
2023-01-11T16:12:55.877Z,88293.00
2023-01-11T16:13:55.778Z,88295.00
2023-01-11T16:14:55.709Z,88291.00
2023-01-11T16:15:55.690Z,88293.00
2023-01-11T16:16:55.530Z,88293.00
2023-01-11T16:17:55.440Z,88293.00
2023-01-11T16:18:55.368Z,88293.00
2023-01-11T16:19:55.272Z,88295.00
2023-01-11T16:20:55.211Z,88295.00
2023-01-11T16:21:55.133Z,88293.00
2023-01-11T16:22:55.035Z,88295.00
2023-01-11T16:23:54.943Z,88293.00
2023-01-11T16:24:54.865Z,88295.00
2023-01-11T16:25:54.778Z,88295.00
2023-01-11T16:26:54.737Z,88293.00
2023-01-11T16:27:54.617Z,88289.00
2023-01-11T16:28:54.535Z,88287.00
2023-01-11T16:29:54.426Z,88284.00
2023-01-11T16:30:54.352Z,88284.00
2023-01-11T16:31:54.329Z,88284.00
2023-01-11T16:32:54.175Z,88282.00
2023-01-11T16:33:54.100Z,88284.00
2023-01-11T16:34:54.003Z,88289.00
2023-01-11T16:35:53.937Z,88289.00
2023-01-11T16:36:53.845Z,88293.00
2023-01-11T16:37:53.763Z,88295.00
2023-01-11T16:38:53.658Z,88299.00
2023-01-11T16:39:53.589Z,88301.00
2023-01-11T16:40:53.506Z,88303.00
2023-01-11T16:41:53.426Z,88303.00
2023-01-11T16:42:53.361Z,88305.00
2023-01-11T16:43:53.257Z,88303.00
2023-01-11T16:44:53.181Z,88305.00
2023-01-11T16:45:53.218Z,88307.00
2023-01-11T16:46:52.997Z,88307.00
2023-01-11T16:47:52.895Z,88307.00
2023-01-11T16:48:52.839Z,88307.00
2023-01-11T16:49:52.732Z,88313.00
2023-01-11T16:50:52.632Z,88317.00
2023-01-11T16:51:52.550Z,88317.00
2023-01-11T16:52:52.452Z,88317.00
2023-01-11T16:53:52.428Z,88325.00
2023-01-11T16:54:52.291Z,88327.00
2023-01-11T16:55:52.185Z,88325.00
2023-01-11T16:56:52.100Z,88325.00
2023-01-11T16:57:52.009Z,88325.00
2023-01-11T16:58:51.915Z,88325.00
2023-01-11T16:59:51.827Z,88329.00
2023-01-11T17:00:51.739Z,88329.00
2023-01-11T17:01:51.673Z,88331.00
2023-01-11T17:02:51.527Z,88333.00
2023-01-11T17:03:51.459Z,88335.00
2023-01-11T17:04:51.349Z,88338.00
2023-01-11T17:05:51.279Z,88340.00
2023-01-11T17:06:51.145Z,88342.00
2023-01-11T17:07:51.050Z,88344.00
2023-01-11T17:08:50.975Z,88346.00
2023-01-11T17:09:50.880Z,88346.00
2023-01-11T17:10:50.780Z,88346.00
2023-01-11T17:11:50.703Z,88348.00
2023-01-11T17:12:50.604Z,88350.00
2023-01-11T17:13:50.523Z,88348.00
2023-01-11T17:14:50.508Z,88348.00
2023-01-11T17:15:50.316Z,88348.00
2023-01-11T17:16:50.415Z,88344.00
2023-01-11T17:17:50.171Z,88344.00
2023-01-11T17:18:50.074Z,88344.00
2023-01-11T17:19:49.989Z,88344.00
2023-01-11T17:20:49.907Z,88346.00
2023-01-11T17:21:49.808Z,88350.00
2023-01-11T17:22:49.734Z,88352.00
2023-01-11T17:23:49.640Z,88354.00
2023-01-11T17:24:49.545Z,88354.00
2023-01-11T17:25:49.565Z,88358.00
2023-01-11T17:26:49.415Z,88360.00
2023-01-11T17:27:49.270Z,88364.00
2023-01-11T17:28:49.204Z,88366.00
2023-01-11T17:29:49.109Z,88370.00
2023-01-11T17:30:49.013Z,88372.00
2023-01-11T17:31:48.967Z,88370.00
2023-01-11T17:32:48.857Z,88372.00
2023-01-11T17:33:48.756Z,88372.00
2023-01-11T17:34:48.665Z,88370.00
2023-01-11T17:35:48.569Z,88370.00
2023-01-11T17:36:48.472Z,88368.00
2023-01-11T17:37:48.408Z,88368.00
2023-01-11T17:38:48.302Z,88368.00
2023-01-11T17:39:48.204Z,88366.00
2023-01-11T17:40:48.106Z,88364.00
2023-01-11T17:41:48.035Z,88366.00
2023-01-11T17:42:47.948Z,88368.00
2023-01-11T17:43:47.841Z,88364.00
2023-01-11T17:44:47.766Z,88368.00
2023-01-11T17:45:47.701Z,88370.00
2023-01-11T17:46:47.563Z,88366.00
2023-01-11T17:47:47.501Z,88372.00
2023-01-11T17:48:47.404Z,88368.00
2023-01-11T17:49:47.293Z,88374.00
2023-01-11T17:50:47.209Z,88372.00
2023-01-11T17:51:47.104Z,88382.00
2023-01-11T17:52:54.740Z,88384.00
2023-01-11T17:53:47.930Z,88386.00
2023-01-11T17:54:46.835Z,88386.00
2023-01-11T17:55:46.739Z,88390.00
2023-01-11T17:56:46.665Z,88393.00
2023-01-11T17:57:46.557Z,88395.00
2023-01-11T17:58:46.484Z,88399.00
2023-01-11T17:59:46.366Z,88399.00
2023-01-11T18:00:46.323Z,88401.00
2023-01-11T18:01:46.192Z,88403.00
2023-01-11T18:02:46.130Z,88405.00
2023-01-11T18:03:46.040Z,88407.00
2023-01-11T18:04:45.916Z,88411.00
2023-01-11T18:05:45.803Z,88415.00
2023-01-11T18:06:45.720Z,88415.00
2023-01-11T18:07:45.620Z,88415.00
2023-01-11T18:08:45.529Z,88415.00
2023-01-11T18:09:45.432Z,88417.00
2023-01-11T18:10:45.344Z,88419.00
2023-01-11T18:11:45.258Z,88423.00
2023-01-11T18:12:45.170Z,88425.00
2023-01-11T18:13:45.085Z,88427.00
2023-01-11T18:14:44.994Z,88431.00
2023-01-11T18:15:44.886Z,88433.00
2023-01-11T18:16:44.862Z,88433.00
2023-01-11T18:17:45.405Z,88433.00
2023-01-11T18:18:44.637Z,88431.00
2023-01-11T18:19:44.544Z,88437.00
2023-01-11T18:20:44.447Z,88441.00
2023-01-11T18:21:44.400Z,88441.00
2023-01-11T18:22:44.290Z,88441.00
2023-01-11T18:23:44.185Z,88443.00
2023-01-11T18:24:44.095Z,88448.00
2023-01-11T18:25:44.070Z,88454.00
2023-01-11T18:26:43.962Z,88458.00
2023-01-11T18:27:43.837Z,88456.00
2023-01-11T18:28:43.792Z,88460.00
2023-01-11T18:29:43.666Z,88458.00
2023-01-11T18:30:43.644Z,88460.00